Time;durP1;ratioP1;P1;durP2;ratioP2;P2;SDS_P1;SDS_P2;PMS_P1;PMS_P2;Temp;Humidity;BMP_temperature;BMP_pressure;BME280_temperature;BME280_humidity;BME280_pressure;Samples;Min_cycle;Max_cycle;Signal;HPM_P1;HPM_P2
2022/07/10 00:01:44;;;;;;;23.25;4.38;;;12.30;99.90;;;;;;5035569;28;20087;-69
2022/07/10 00:04:10;;;;;;;39.55;5.55;;;12.30;99.90;;;;;;5035981;28;20063;-69
2022/07/10 00:06:36;;;;;;;33.25;5.63;;;12.30;99.90;;;;;;5035673;28;20021;-69
2022/07/10 00:09:01;;;;;;;29.63;5.90;;;12.40;99.90;;;;;;5035607;28;20048;-69
2022/07/10 00:11:27;;;;;;;27.45;5.20;;;12.50;99.90;;;;;;5035534;28;20033;-69
2022/07/10 00:13:52;;;;;;;41.72;5.47;;;12.60;99.90;;;;;;5035824;28;20476;-69
2022/07/10 00:16:18;;;;;;;42.97;4.97;;;12.60;99.90;;;;;;5035514;28;20025;-69
2022/07/10 00:18:43;;;;;;;27.80;4.95;;;12.60;99.90;;;;;;5035340;28;20025;-69
2022/07/10 00:21:09;;;;;;;35.50;4.60;;;12.60;99.90;;;;;;5035354;28;20035;-69
2022/07/10 00:23:35;;;;;;;27.95;5.07;;;12.50;99.90;;;;;;5035298;28;20028;-69
2022/07/10 00:26:00;;;;;;;19.20;4.32;;;12.40;99.90;;;;;;5035296;28;20036;-69
2022/07/10 00:28:26;;;;;;;39.15;5.18;;;12.40;99.90;;;;;;5035288;28;20492;-69
2022/07/10 00:30:51;;;;;;;41.88;5.38;;;12.30;99.90;;;;;;5035128;28;20021;-69
2022/07/10 00:33:17;;;;;;;26.95;4.00;;;12.30;99.90;;;;;;5035197;28;20470;-69
2022/07/10 00:35:42;;;;;;;39.45;6.65;;;12.40;99.90;;;;;;5035158;28;20036;-69
2022/07/10 00:38:08;;;;;;;22.38;4.85;;;12.40;99.90;;;;;;5035107;28;20033;-69
2022/07/10 00:40:33;;;;;;;37.00;5.88;;;12.50;99.90;;;;;;5035217;28;20037;-69
2022/07/10 00:42:59;;;;;;;23.10;4.18;;;12.50;99.90;;;;;;5035307;28;20029;-69
2022/07/10 00:45:25;;;;;;;27.30;5.70;;;12.60;99.90;;;;;;5034962;28;20021;-69
2022/07/10 00:47:50;;;;;;;32.30;4.80;;;12.60;99.90;;;;;;5035440;28;20450;-69
2022/07/10 00:50:16;;;;;;;34.28;5.00;;;12.60;99.90;;;;;;5034781;28;20465;-69
2022/07/10 00:52:41;;;;;;;39.58;4.50;;;12.50;99.90;;;;;;5034801;28;20388;-69
2022/07/10 00:55:09;;;;;;;24.08;4.80;;;12.50;99.90;;;;;;5034841;28;20052;-69
2022/07/10 00:57:36;;;;;;;25.70;4.53;;;12.50;99.90;;;;;;5034688;28;20057;-69
2022/07/10 01:00:02;;;;;;;45.85;5.90;;;12.40;99.90;;;;;;5034640;28;20034;-69
2022/07/10 01:02:28;;;;;;;36.67;4.30;;;12.30;99.90;;;;;;5050077;22;20136;-69
2022/07/10 01:04:56;;;;;;;32.10;5.28;;;12.30;99.90;;;;;;5035058;28;20445;-69
2022/07/10 01:07:22;;;;;;;37.20;5.35;;;12.30;99.90;;;;;;5034976;28;20029;-69
2022/07/10 01:09:47;;;;;;;29.40;4.70;;;12.30;99.90;;;;;;5034544;28;20029;-69
2022/07/10 01:12:14;;;;;;;27.70;4.57;;;12.40;99.90;;;;;;5034629;28;20045;-69
2022/07/10 01:14:41;;;;;;;37.47;5.35;;;12.40;99.90;;;;;;5034807;28;20396;-69
2022/07/10 01:17:09;;;;;;;39.88;6.03;;;12.50;99.90;;;;;;5034446;28;20505;-69
2022/07/10 01:19:34;;;;;;;37.95;4.32;;;12.60;99.90;;;;;;5034789;28;20412;-69
2022/07/10 01:22:00;;;;;;;34.92;5.82;;;12.70;99.90;;;;;;5034393;28;20029;-69
2022/07/10 01:24:25;;;;;;;28.48;6.05;;;12.60;99.90;;;;;;5034337;28;20029;-69
2022/07/10 01:26:51;;;;;;;51.15;5.72;;;12.50;99.90;;;;;;5033633;28;20030;-69
2022/07/10 01:29:17;;;;;;;37.42;4.53;;;12.40;99.90;;;;;;5034578;28;20044;-69
2022/07/10 01:31:43;;;;;;;34.13;5.80;;;12.30;99.90;;;;;;5034229;28;20033;-69
2022/07/10 01:34:09;;;;;;;29.25;4.13;;;12.30;99.90;;;;;;5034265;28;20018;-69
2022/07/10 01:36:35;;;;;;;32.67;4.22;;;12.20;99.90;;;;;;5034468;28;20385;-69
2022/07/10 01:39:01;;;;;;;32.35;5.72;;;12.10;99.90;;;;;;5034426;28;20029;-69
2022/07/10 01:41:27;;;;;;;26.10;3.75;;;12.10;99.90;;;;;;5034396;28;20455;-69
2022/07/10 01:43:53;;;;;;;44.53;7.22;;;12.10;99.90;;;;;;5034782;28;20026;-68
2022/07/10 01:46:19;;;;;;;29.45;5.38;;;12.10;99.90;;;;;;5034064;28;20101;-68
2022/07/10 01:48:44;;;;;;;22.65;4.32;;;12.20;99.90;;;;;;5034351;28;20109;-68
2022/07/10 01:51:11;;;;;;;30.92;4.13;;;12.00;99.90;;;;;;5016161;28;20044;-68
2022/07/10 01:53:37;;;;;;;31.75;4.65;;;12.10;99.90;;;;;;5012926;28;20029;-68
2022/07/10 01:56:06;;;;;;;26.55;4.80;;;12.20;99.90;;;;;;5033851;28;20029;-68
2022/07/10 01:58:31;;;;;;;35.60;4.25;;;12.10;99.90;;;;;;5033698;28;20028;-68
2022/07/10 02:00:57;;;;;;;28.77;4.78;;;12.10;99.90;;;;;;5033582;28;20037;-68
2022/07/10 02:06:07;;;;;;;29.30;4.13;;;11.80;99.90;;;;;;5024998;28;20091;-70
2022/07/10 02:08:33;;;;;;;37.40;7.00;;;11.90;99.90;;;;;;5033885;28;20477;-70
2022/07/10 02:10:59;;;;;;;22.05;3.47;;;12.00;99.90;;;;;;5033695;28;20451;-71
2022/07/10 02:13:27;;;;;;;19.58;3.63;;;12.00;99.90;;;;;;5033721;28;20112;-70
2022/07/10 02:15:53;;;;;;;31.27;3.38;;;12.10;99.90;;;;;;5033712;28;20533;-70
2022/07/10 02:18:19;;;;;;;35.65;4.05;;;12.10;99.90;;;;;;5033796;28;20465;-70
2022/07/10 02:20:45;;;;;;;28.15;4.50;;;12.20;99.90;;;;;;5033230;28;20032;-70
2022/07/10 02:23:11;;;;;;;36.88;5.00;;;12.30;99.90;;;;;;5033856;28;20119;-70
2022/07/10 02:25:36;;;;;;;28.65;3.70;;;12.30;99.90;;;;;;5032804;28;20046;-70
2022/07/10 02:28:02;;;;;;;26.33;3.95;;;12.30;99.90;;;;;;5033397;28;20036;-70
2022/07/10 02:30:27;;;;;;;17.38;3.28;;;12.20;99.90;;;;;;5033345;28;20029;-70
2022/07/10 02:32:53;;;;;;;18.63;3.47;;;12.30;99.90;;;;;;5033428;28;20061;-70
2022/07/10 02:35:19;;;;;;;19.02;3.90;;;12.30;99.90;;;;;;5033372;28;20029;-70
2022/07/10 02:37:44;;;;;;;28.85;3.28;;;12.40;99.90;;;;;;5033870;28;20444;-70
2022/07/10 02:40:10;;;;;;;33.92;4.45;;;12.50;99.90;;;;;;5037434;28;20060;-70
2022/07/10 02:42:36;;;;;;;36.80;5.10;;;12.50;99.90;;;;;;5037443;28;20028;-70
2022/07/10 02:45:02;;;;;;;29.60;4.18;;;12.60;99.90;;;;;;5037329;28;20025;-70
2022/07/10 02:47:28;;;;;;;24.67;3.88;;;12.60;99.90;;;;;;5019597;28;20465;-70
2022/07/10 02:49:53;;;;;;;26.25;4.03;;;12.60;99.90;;;;;;5037260;28;20033;-70
2022/07/10 02:52:19;;;;;;;36.92;4.25;;;12.50;99.90;;;;;;5036928;28;20092;-70
2022/07/10 02:54:44;;;;;;;38.75;4.55;;;12.50;99.90;;;;;;5037156;28;20396;-70
2022/07/10 02:57:10;;;;;;;18.98;4.10;;;12.40;99.90;;;;;;5037450;28;20103;-70
2022/07/10 02:59:36;;;;;;;21.20;3.58;;;12.40;99.90;;;;;;5036958;28;20064;-69
2022/07/10 03:02:01;;;;;;;28.58;3.90;;;12.30;99.90;;;;;;5036837;28;20029;-69
2022/07/10 03:04:27;;;;;;;32.47;4.15;;;12.40;99.90;;;;;;5037194;28;20388;-69
2022/07/10 03:06:53;;;;;;;18.27;4.90;;;12.40;99.90;;;;;;5037058;28;20043;-69
2022/07/10 03:09:19;;;;;;;24.17;5.25;;;12.50;99.90;;;;;;5037478;28;20491;-69
2022/07/10 03:11:44;;;;;;;33.58;3.85;;;12.40;99.90;;;;;;5036934;28;20509;-69
2022/07/10 03:14:10;;;;;;;22.35;3.33;;;12.40;99.90;;;;;;5036873;28;20029;-69
2022/07/10 03:16:36;;;;;;;23.67;4.53;;;12.40;99.90;;;;;;5019181;28;20056;-69
2022/07/10 03:19:01;;;;;;;22.95;3.72;;;12.50;99.90;;;;;;5037268;28;20022;-69
2022/07/10 03:21:27;;;;;;;19.42;4.75;;;12.50;99.90;;;;;;5036928;28;20056;-69
2022/07/10 03:23:53;;;;;;;29.27;4.32;;;12.60;99.90;;;;;;5036709;28;20064;-69
2022/07/10 03:26:18;;;;;;;21.13;2.53;;;12.60;99.90;;;;;;5036611;28;20029;-69
2022/07/10 03:28:44;;;;;;;18.85;3.50;;;12.60;99.90;;;;;;5036745;28;20104;-69
2022/07/10 03:31:09;;;;;;;21.63;3.13;;;12.70;99.90;;;;;;5036391;28;20036;-69
2022/07/10 03:33:35;;;;;;;19.48;4.25;;;12.60;99.90;;;;;;5036714;28;20033;-69
2022/07/10 03:36:04;;;;;;;33.55;4.72;;;12.50;99.90;;;;;;5036506;28;20032;-69
2022/07/10 03:38:30;;;;;;;22.30;4.32;;;12.50;99.90;;;;;;5036445;28;20056;-69
2022/07/10 03:40:56;;;;;;;25.00;3.85;;;12.40;99.90;;;;;;5036393;28;20453;-69
2022/07/10 03:43:21;;;;;;;20.42;3.70;;;12.40;99.90;;;;;;5036332;28;20108;-69
2022/07/10 03:45:47;;;;;;;35.03;5.28;;;12.40;99.90;;;;;;5036447;28;20061;-69
2022/07/10 03:48:12;;;;;;;26.98;3.70;;;12.30;99.90;;;;;;5036190;28;20071;-69
2022/07/10 03:50:38;;;;;;;26.48;3.75;;;12.30;99.90;;;;;;5035749;28;20091;-69
2022/07/10 03:53:04;;;;;;;24.75;3.47;;;12.20;99.90;;;;;;5036087;28;20393;-69
2022/07/10 03:55:29;;;;;;;24.33;3.47;;;12.20;99.90;;;;;;5031996;28;20440;-69
2022/07/10 03:58:02;;;;;;;16.83;3.45;;;12.10;99.90;;;;;;5036088;28;20030;-69
2022/07/10 04:00:28;;;;;;;25.40;4.10;;;12.10;99.90;;;;;;5018026;28;20400;-69
2022/07/10 04:02:58;;;;;;;21.35;3.58;;;12.10;99.90;;;;;;5035775;28;20076;-69
2022/07/10 04:05:24;;;;;;;29.50;4.05;;;12.10;99.90;;;;;;5036448;28;20029;-69
2022/07/10 04:07:50;;;;;;;25.65;4.28;;;12.10;99.90;;;;;;5036486;28;20436;-69
2022/07/10 04:10:16;;;;;;;25.83;3.45;;;12.10;99.90;;;;;;5035871;28;20068;-70
2022/07/10 04:12:42;;;;;;;42.78;3.67;;;12.10;99.90;;;;;;5035717;28;20025;-69
2022/07/10 04:15:08;;;;;;;23.05;4.05;;;12.30;99.90;;;;;;5035695;28;20083;-69
2022/07/10 04:17:33;;;;;;;16.50;2.70;;;12.40;99.90;;;;;;5035606;28;20474;-69
2022/07/10 04:19:59;;;;;;;30.35;4.55;;;12.50;99.90;;;;;;5035819;28;20029;-69
2022/07/10 04:22:26;;;;;;;19.98;3.13;;;12.70;99.90;;;;;;5035686;28;20033;-69
2022/07/10 04:24:52;;;;;;;14.68;3.58;;;12.60;99.90;;;;;;5017790;28;20037;-70
2022/07/10 04:27:17;;;;;;;28.15;4.45;;;12.70;99.90;;;;;;5015966;28;20034;-69
2022/07/10 04:29:44;;;;;;;24.13;4.32;;;12.70;99.90;;;;;;5015591;28;20030;-69
2022/07/10 04:32:09;;;;;;;17.00;3.08;;;12.80;99.90;;;;;;5015599;28;20034;-69
2022/07/10 04:34:35;;;;;;;28.80;3.40;;;12.90;99.90;;;;;;5016127;28;20026;-69
2022/07/10 04:37:00;;;;;;;15.80;2.90;;;13.00;99.90;;;;;;5015908;28;20026;-69
2022/07/10 04:39:26;;;;;;;25.23;3.30;;;13.10;99.90;;;;;;5015446;28;20034;-69
2022/07/10 04:41:52;;;;;;;24.33;4.57;;;13.10;99.90;;;;;;5015663;28;20021;-69
2022/07/10 04:44:18;;;;;;;17.35;2.55;;;13.20;99.90;;;;;;5015456;28;20018;-69
2022/07/10 04:46:44;;;;;;;24.88;4.40;;;13.20;99.90;;;;;;5015344;28;20040;-69
2022/07/10 04:49:09;;;;;;;23.92;3.53;;;13.10;99.90;;;;;;5015389;28;20486;-69
2022/07/10 04:51:35;;;;;;;36.20;3.75;;;13.10;99.90;;;;;;5015249;28;20040;-68
2022/07/10 04:54:01;;;;;;;30.67;4.70;;;13.10;99.90;;;;;;5017937;28;20045;-68
2022/07/10 04:56:26;;;;;;;22.35;3.08;;;13.30;99.90;;;;;;5015230;28;20560;-68
2022/07/10 04:58:52;;;;;;;22.55;2.88;;;13.40;99.90;;;;;;5015586;28;20033;-69
2022/07/10 05:01:18;;;;;;;21.63;3.45;;;13.50;99.90;;;;;;5021688;28;20075;-69
2022/07/10 05:03:43;;;;;;;18.77;3.22;;;13.60;99.90;;;;;;5034605;28;20022;-69
2022/07/10 05:06:09;;;;;;;18.65;4.32;;;13.70;99.90;;;;;;5034826;28;20013;-69
2022/07/10 05:08:34;;;;;;;32.00;3.50;;;13.70;99.90;;;;;;5034689;28;20036;-69
2022/07/10 05:11:00;;;;;;;29.17;3.40;;;13.70;99.90;;;;;;5034761;28;20021;-69
2022/07/10 05:13:25;;;;;;;18.70;3.45;;;13.70;99.90;;;;;;5034868;28;20057;-69
2022/07/10 05:15:51;;;;;;;22.25;4.35;;;13.70;99.90;;;;;;5034546;28;20531;-69
2022/07/10 05:18:17;;;;;;;21.45;3.88;;;13.70;99.90;;;;;;5034704;28;20064;-69
2022/07/10 05:20:43;;;;;;;16.10;3.13;;;13.80;99.90;;;;;;5034497;28;20105;-69
2022/07/10 05:23:09;;;;;;;22.48;2.90;;;13.90;99.90;;;;;;5034128;28;20017;-69
2022/07/10 05:25:37;;;;;;;28.00;4.22;;;13.90;99.90;;;;;;5034431;28;20037;-69
2022/07/10 05:28:04;;;;;;;28.33;4.20;;;14.00;99.90;;;;;;5034420;28;20045;-69
2022/07/10 05:30:29;;;;;;;31.00;3.97;;;14.10;99.90;;;;;;5034103;28;20466;-69
2022/07/10 05:32:55;;;;;;;30.00;3.17;;;14.10;99.90;;;;;;5034221;28;20087;-69
2022/07/10 05:35:20;;;;;;;25.73;3.72;;;14.00;99.90;;;;;;5034225;28;20029;-69
2022/07/10 05:37:46;;;;;;;19.85;4.15;;;14.00;99.90;;;;;;5034418;28;20041;-70
2022/07/10 05:40:12;;;;;;;30.88;3.17;;;13.90;99.90;;;;;;5034280;28;20033;-70
2022/07/10 05:42:38;;;;;;;19.63;3.72;;;14.00;99.90;;;;;;5033821;28;20018;-70
2022/07/10 05:45:05;;;;;;;25.13;3.58;;;14.30;99.90;;;;;;5034124;28;20384;-71
2022/07/10 05:47:31;;;;;;;26.48;3.92;;;14.30;99.90;;;;;;5034147;28;20061;-70
2022/07/10 05:49:56;;;;;;;15.35;3.47;;;14.40;99.90;;;;;;5034358;28;20112;-70
2022/07/10 05:52:22;;;;;;;18.80;3.38;;;14.40;99.90;;;;;;5034090;28;20032;-70
2022/07/10 05:54:47;;;;;;;29.23;3.88;;;14.50;99.90;;;;;;5034392;28;20475;-71
2022/07/10 05:57:13;;;;;;;22.42;3.95;;;14.60;99.90;;;;;;5033976;28;20105;-71
2022/07/10 05:59:39;;;;;;;21.13;3.25;;;14.60;99.90;;;;;;5034241;28;20371;-71
2022/07/10 06:02:04;;;;;;;24.58;4.13;;;14.70;99.90;;;;;;5033945;28;20041;-71
2022/07/10 06:04:30;;;;;;;21.42;3.63;;;14.60;99.90;;;;;;5033889;28;20036;-71
2022/07/10 06:06:56;;;;;;;27.88;4.97;;;14.60;99.90;;;;;;5034310;28;20541;-70
2022/07/10 06:09:21;;;;;;;21.42;3.03;;;14.70;99.90;;;;;;5034005;28;20048;-70
2022/07/10 06:11:48;;;;;;;28.40;3.65;;;14.70;99.90;;;;;;5033491;28;20032;-70
2022/07/10 06:14:14;;;;;;;12.80;2.55;;;14.70;99.90;;;;;;5033258;28;20108;-70
2022/07/10 06:16:40;;;;;;;18.77;3.45;;;14.70;99.90;;;;;;5033532;28;20032;-69
2022/07/10 06:19:05;;;;;;;24.05;3.75;;;14.90;99.90;;;;;;5033521;28;20033;-70
2022/07/10 06:21:31;;;;;;;17.90;2.92;;;15.00;99.90;;;;;;5033485;28;20021;-70
2022/07/10 06:23:57;;;;;;;20.05;3.17;;;15.10;99.90;;;;;;5033853;28;20029;-70
2022/07/10 06:26:22;;;;;;;16.15;2.88;;;15.20;99.90;;;;;;5033492;28;20029;-70
2022/07/10 06:28:48;;;;;;;23.40;3.83;;;15.10;99.90;;;;;;5034270;28;20026;-70
2022/07/10 06:31:14;;;;;;;16.40;3.67;;;15.10;99.90;;;;;;5035343;28;20065;-70
2022/07/10 06:33:39;;;;;;;24.48;3.33;;;14.90;99.90;;;;;;5034613;28;20031;-69
2022/07/10 06:36:05;;;;;;;28.02;4.30;;;14.80;99.90;;;;;;5033568;28;20026;-69
2022/07/10 06:38:31;;;;;;;24.70;3.80;;;14.70;99.90;;;;;;5033380;28;20441;-70
2022/07/10 06:40:57;;;;;;;19.92;3.10;;;14.80;99.90;;;;;;5033296;28;20112;-70
2022/07/10 06:43:22;;;;;;;24.38;3.30;;;14.60;99.90;;;;;;5033382;28;20022;-70
2022/07/10 06:45:48;;;;;;;25.95;3.75;;;14.60;99.90;;;;;;5033375;28;20025;-69
2022/07/10 06:48:14;;;;;;;30.52;3.22;;;14.60;99.90;;;;;;5033660;28;20072;-70
2022/07/10 06:50:40;;;;;;;22.00;3.55;;;14.80;99.90;;;;;;5033641;28;20504;-70
2022/07/10 06:53:06;;;;;;;30.70;3.80;;;15.00;99.90;;;;;;5033344;28;20068;-70
2022/07/10 06:55:32;;;;;;;14.38;2.67;;;15.30;99.90;;;;;;5033596;28;20026;-70
2022/07/10 06:57:58;;;;;;;25.65;3.75;;;15.50;99.90;;;;;;5034056;28;20025;-69
2022/07/10 07:00:24;;;;;;;26.90;3.25;;;15.70;99.90;;;;;;5033146;28;20474;-69
2022/07/10 07:02:50;;;;;;;30.80;3.55;;;15.90;99.90;;;;;;5062388;23;20045;-69
2022/07/10 07:05:16;;;;;;;36.45;4.30;;;16.20;99.90;;;;;;5035004;28;20021;-68
2022/07/10 07:07:42;;;;;;;28.48;3.25;;;16.50;99.90;;;;;;5052877;28;20040;-68
2022/07/10 07:10:08;;;;;;;23.52;2.90;;;16.70;99.90;;;;;;5053113;28;20033;-69
2022/07/10 07:12:34;;;;;;;35.38;4.82;;;16.90;99.90;;;;;;5052688;28;20484;-68
2022/07/10 07:15:00;;;;;;;29.73;3.78;;;16.90;99.90;;;;;;5052831;28;20044;-68
2022/07/10 07:17:33;;;;;;;19.20;3.10;;;16.70;99.90;;;;;;5052747;28;20544;-68
2022/07/10 07:25:27;;;;;;;;;;;16.90;99.90;;;;;;5055219;28;20036;-68
2022/07/10 07:27:53;;;;;;;17.65;3.10;;;16.80;99.90;;;;;;5056417;28;19904;-68
2022/07/10 07:30:19;;;;;;;19.73;3.38;;;16.60;99.90;;;;;;5056594;28;20039;-68
2022/07/10 07:32:46;;;;;;;19.67;3.05;;;16.70;99.90;;;;;;5056767;28;20024;-68
2022/07/10 07:35:12;;;;;;;23.77;3.47;;;16.80;99.90;;;;;;5056263;28;20021;-68
2022/07/10 07:37:44;;;;;;;23.05;3.78;;;16.90;99.90;;;;;;5056283;28;20434;-68
2022/07/10 07:40:13;;;;;;;23.63;3.03;;;17.00;99.90;;;;;;5057135;28;20033;-68
2022/07/10 07:42:39;;;;;;;22.55;3.65;;;16.70;99.90;;;;;;5055920;28;20048;-68
2022/07/10 07:45:05;;;;;;;25.50;3.47;;;16.30;99.90;;;;;;5056223;28;20029;-67
2022/07/10 07:47:44;;;;;;;16.00;3.22;;;16.10;99.90;;;;;;5056035;28;20021;-68
2022/07/10 07:50:10;;;;;;;17.17;2.88;;;16.00;99.90;;;;;;5056095;28;20036;-68
2022/07/10 07:52:35;;;;;;;22.23;3.22;;;15.90;99.90;;;;;;5055946;28;20029;-68
2022/07/10 07:55:01;;;;;;;26.35;3.03;;;15.90;99.90;;;;;;5055814;28;20028;-67
2022/07/10 07:57:27;;;;;;;21.27;3.13;;;15.90;99.90;;;;;;5055895;28;20021;-68
2022/07/10 07:59:53;;;;;;;30.25;3.35;;;16.10;99.90;;;;;;5056240;28;20021;-67
2022/07/10 08:02:18;;;;;;;17.45;2.92;;;16.40;99.90;;;;;;5055569;28;20036;-68
2022/07/10 08:04:44;;;;;;;22.92;3.78;;;16.40;99.90;;;;;;5055703;28;20028;-68
2022/07/10 08:07:10;;;;;;;10.20;2.30;;;16.90;99.90;;;;;;5056249;28;20017;-68
2022/07/10 08:09:35;;;;;;;19.92;3.10;;;17.20;99.90;;;;;;5055769;28;20024;-67
2022/07/10 08:12:01;;;;;;;21.30;4.68;;;17.00;99.90;;;;;;5055170;28;20096;-68
2022/07/10 08:14:26;;;;;;;23.85;4.30;;;16.70;99.90;;;;;;5055305;28;20444;-68
2022/07/10 08:16:52;;;;;;;28.33;4.40;;;16.80;99.90;;;;;;5055488;28;20086;-68
2022/07/10 08:19:18;;;;;;;26.65;3.33;;;16.70;99.90;;;;;;5055420;28;20111;-68
2022/07/10 08:21:43;;;;;;;18.80;3.30;;;16.50;99.90;;;;;;5055348;28;20104;-69
2022/07/10 08:24:09;;;;;;;21.85;3.58;;;16.60;99.90;;;;;;5055271;28;20083;-69
2022/07/10 08:26:34;;;;;;;28.30;3.67;;;16.80;99.90;;;;;;5055569;28;20025;-68
2022/07/10 08:29:00;;;;;;;24.35;4.40;;;16.60;99.90;;;;;;5055259;28;20027;-68
2022/07/10 08:31:26;;;;;;;25.20;3.03;;;16.60;99.90;;;;;;5055163;28;20373;-69
2022/07/10 08:33:52;;;;;;;22.90;3.72;;;16.50;99.90;;;;;;5055437;28;20373;-68
2022/07/10 08:36:18;;;;;;;17.52;3.25;;;16.50;99.90;;;;;;5055145;28;20097;-68
2022/07/10 08:38:43;;;;;;;17.92;3.22;;;16.80;99.90;;;;;;5054997;28;20473;-69
2022/07/10 08:41:12;;;;;;;24.92;4.43;;;16.90;99.90;;;;;;5054878;28;20020;-69
2022/07/10 08:43:38;;;;;;;19.90;2.97;;;16.60;99.90;;;;;;5054988;28;20017;-69
2022/07/10 08:46:05;;;;;;;19.55;3.88;;;16.40;99.90;;;;;;5054896;28;20031;-69
2022/07/10 08:48:33;;;;;;;21.73;4.45;;;16.20;99.90;;;;;;5054835;28;20033;-69
2022/07/10 08:51:06;;;;;;;18.05;3.03;;;16.40;99.90;;;;;;5054986;28;20100;-69
2022/07/10 08:53:32;;;;;;;24.48;3.25;;;16.70;99.90;;;;;;5055125;28;20376;-69
2022/07/10 08:55:59;;;;;;;23.98;4.05;;;16.80;99.90;;;;;;5054710;28;20033;-69
2022/07/10 08:58:26;;;;;;;18.48;3.17;;;16.80;99.90;;;;;;5054859;28;20052;-69
2022/07/10 09:00:53;;;;;;;25.33;4.43;;;16.70;99.90;;;;;;5054478;28;20036;-69
2022/07/10 09:03:19;;;;;;;19.60;3.97;;;16.60;99.90;;;;;;5054507;28;20061;-69
2022/07/10 09:05:45;;;;;;;26.95;4.18;;;16.60;99.90;;;;;;5055013;28;20029;-69
2022/07/10 09:08:24;;;;;;;18.08;2.88;;;16.70;99.90;;;;;;5054475;28;20040;-69
2022/07/10 09:10:50;;;;;;;23.25;4.82;;;16.80;99.90;;;;;;5054486;28;20087;-69
2022/07/10 09:13:16;;;;;;;28.88;3.40;;;16.70;99.90;;;;;;5054399;28;20021;-69
2022/07/10 09:15:48;;;;;;;18.90;2.80;;;16.60;99.90;;;;;;5054199;28;20543;-69
2022/07/10 09:18:22;;;;;;;13.50;2.83;;;16.60;99.90;;;;;;5054579;28;20084;-69
2022/07/10 09:20:47;;;;;;;22.73;2.67;;;16.40;99.90;;;;;;5054471;28;20029;-69
2022/07/10 09:23:21;;;;;;;18.67;3.78;;;16.50;99.90;;;;;;5054132;28;20370;-69
2022/07/10 09:25:48;;;;;;;11.68;2.63;;;16.50;99.90;;;;;;5054134;28;20060;-69
2022/07/10 09:28:22;;;;;;;19.10;3.42;;;16.60;99.90;;;;;;5054115;28;20507;-69
2022/07/10 09:30:48;;;;;;;15.10;2.35;;;16.70;99.90;;;;;;5054201;28;20472;-69
2022/07/10 09:33:31;;;;;;;19.40;2.95;;;16.70;99.90;;;;;;5053949;28;20025;-69
2022/07/10 09:36:13;;;;;;;10.30;2.22;;;16.50;99.90;;;;;;5054274;28;20061;-69
2022/07/10 09:38:48;;;;;;;14.25;2.40;;;16.50;99.90;;;;;;5053881;28;20083;-69
2022/07/10 09:41:25;;;;;;;23.92;3.20;;;16.50;99.90;;;;;;5054086;28;20017;-69
2022/07/10 09:44:06;;;;;;;17.40;2.70;;;16.50;99.90;;;;;;5053824;28;20025;-69
2022/07/10 09:46:39;;;;;;;14.25;2.08;;;16.70;99.90;;;;;;5054031;28;20017;-69
2022/07/10 09:49:14;;;;;;;17.05;3.08;;;17.00;99.90;;;;;;5053836;28;20018;-68
2022/07/10 09:51:41;;;;;;;20.27;3.40;;;17.10;99.90;;;;;;5053940;28;20068;-69
2022/07/10 09:54:08;;;;;;;19.38;2.92;;;17.10;99.90;;;;;;5053974;28;20055;-68
2022/07/10 09:56:42;;;;;;;19.45;2.55;;;17.00;99.90;;;;;;5053672;28;20033;-70
2022/07/10 09:59:11;;;;;;;;;;;17.00;99.90;;;;;;5054006;28;20029;-69
2022/07/10 10:01:59;;;;;;;15.85;2.47;;;16.80;99.90;;;;;;5053595;28;19977;-68
2022/07/10 10:04:28;;;;;;;18.52;3.17;;;16.80;99.90;;;;;;5053526;28;20017;-68
2022/07/10 10:06:58;;;;;;;18.58;3.33;;;17.20;99.90;;;;;;5053456;28;20024;-68
2022/07/10 10:09:33;;;;;;;18.48;2.70;;;17.60;99.90;;;;;;5053452;28;20082;-68
2022/07/10 10:12:21;;;;;;;13.73;3.20;;;17.70;99.90;;;;;;5054135;28;20354;-68
2022/07/10 10:14:47;;;;;;;17.95;3.00;;;17.70;99.90;;;;;;5053827;28;20111;-68
2022/07/10 10:17:15;;;;;;;12.85;2.53;;;17.70;99.90;;;;;;5053592;28;20371;-68
2022/07/10 10:22:27;;;;;;;27.05;3.22;;;17.80;99.90;;;;;;5053553;28;20048;-69
2022/07/10 10:24:54;;;;;;;19.05;2.85;;;17.50;99.90;;;;;;5053291;28;20033;-69
2022/07/10 10:27:21;;;;;;;11.00;3.13;;;17.70;99.90;;;;;;5053587;28;20032;-69
2022/07/10 10:29:48;;;;;;;17.38;2.65;;;18.00;99.90;;;;;;5053277;28;20029;-69
2022/07/10 10:32:14;;;;;;;14.77;2.72;;;17.80;99.90;;;;;;5053149;28;20032;-69
2022/07/10 10:34:44;;;;;;;21.20;3.10;;;17.90;99.90;;;;;;5053176;28;20036;-68
2022/07/10 10:37:32;;;;;;;25.60;4.10;;;17.90;99.90;;;;;;5053589;28;20021;-68
2022/07/10 10:39:58;;;;;;;12.68;3.13;;;18.00;99.90;;;;;;5053614;28;20033;-68
2022/07/10 10:42:46;;;;;;;20.08;3.45;;;18.30;99.90;;;;;;5035208;28;20141;-68
2022/07/10 10:45:31;;;;;;;22.08;3.17;;;18.30;99.90;;;;;;5048703;28;20034;-68
2022/07/10 10:48:12;;;;;;;14.93;2.63;;;18.00;99.90;;;;;;5053697;28;20154;-68
2022/07/10 10:50:47;;;;;;;13.73;2.65;;;17.90;99.90;;;;;;5035735;28;20017;-68
2022/07/10 10:53:17;;;;;;;16.58;2.95;;;17.70;99.90;;;;;;5033560;28;20060;-68
2022/07/10 10:56:03;;;;;;;15.50;2.78;;;17.50;99.90;;;;;;5041501;28;20029;-68
2022/07/10 10:58:43;;;;;;;16.13;2.53;;;17.30;99.90;;;;;;5053561;28;20048;-68
2022/07/10 11:01:28;;;;;;;16.75;2.90;;;17.20;99.90;;;;;;5036575;28;20079;-70
2022/07/10 11:04:17;;;;;;;19.55;2.88;;;17.40;99.90;;;;;;5037023;28;20025;-69
2022/07/10 11:06:48;;;;;;;14.60;2.83;;;17.50;99.90;;;;;;5029546;28;20054;-68
2022/07/10 11:09:30;;;;;;;27.30;3.20;;;17.30;99.90;;;;;;5036793;28;20087;-69
2022/07/10 11:12:06;;;;;;;21.48;3.60;;;17.00;99.90;;;;;;5036807;28;20483;-69
2022/07/10 11:14:33;;;;;;;22.63;3.10;;;16.80;99.90;;;;;;5037796;28;20029;-72
2022/07/10 11:16:59;;;;;;;17.83;3.40;;;17.20;99.90;;;;;;5037071;28;20051;-71
2022/07/10 11:19:29;;;;;;;22.20;3.50;;;17.60;99.90;;;;;;5036734;28;20470;-71
2022/07/10 11:22:14;;;;;;;16.35;2.97;;;17.60;99.90;;;;;;5036638;28;20366;-71
2022/07/10 11:24:47;;;;;;;13.07;2.65;;;17.80;99.90;;;;;;5036949;28;20026;-71
2022/07/10 11:28:04;;;;;;;20.45;3.55;;;18.00;99.90;;;;;;5036834;28;20022;-71
2022/07/10 11:30:46;;;;;;;17.45;2.70;;;18.50;99.90;;;;;;5009430;28;20034;-71
2022/07/10 11:33:12;;;;;;;15.07;2.58;;;17.90;99.90;;;;;;5056169;28;20023;-71
2022/07/10 11:35:40;;;;;;;15.25;3.10;;;17.40;99.90;;;;;;5056413;28;20096;-71
2022/07/10 11:38:05;;;;;;;12.27;2.65;;;17.30;99.90;;;;;;5056691;28;20017;-71
2022/07/10 11:40:38;;;;;;;22.83;3.38;;;17.20;99.90;;;;;;5056280;28;20147;-70
2022/07/10 11:43:06;;;;;;;20.63;2.63;;;17.30;99.90;;;;;;5056240;28;20021;-70
2022/07/10 11:45:35;;;;;;;28.02;2.78;;;17.70;99.90;;;;;;5038255;28;20025;-71
2022/07/10 11:48:01;;;;;;;12.65;2.40;;;18.20;99.90;;;;;;5056248;28;20013;-71
2022/07/10 11:50:27;;;;;;;19.15;3.05;;;18.20;99.90;;;;;;5055836;28;20385;-71
2022/07/10 11:52:54;;;;;;;16.48;3.70;;;17.90;99.90;;;;;;5056009;28;20017;-71
2022/07/10 11:55:21;;;;;;;16.90;2.65;;;18.00;99.90;;;;;;5056038;28;20036;-71
2022/07/10 11:57:50;;;;;;;21.35;2.83;;;18.00;99.90;;;;;;5056278;28;20075;-71
2022/07/10 12:00:24;;;;;;;13.13;2.40;;;18.20;99.90;;;;;;5037492;28;20021;-71
2022/07/10 12:02:50;;;;;;;;;;;18.10;99.90;;;;;;5056171;28;20381;-71
2022/07/10 12:05:42;;;;;;;14.32;2.80;;;17.80;99.90;;;;;;5055804;28;19905;-71
2022/07/10 12:08:07;;;;;;;16.10;2.00;;;17.70;99.90;;;;;;5053407;28;20120;-71
2022/07/10 12:10:34;;;;;;;17.58;2.72;;;18.10;99.90;;;;;;5055257;28;20099;-71
2022/07/10 12:13:11;;;;;;;15.95;2.22;;;18.90;99.90;;;;;;5055551;28;20032;-70
2022/07/10 12:15:42;;;;;;;17.08;2.67;;;18.80;99.90;;;;;;5055526;28;20407;-70
2022/07/10 12:18:14;;;;;;;15.48;2.95;;;18.80;99.90;;;;;;5055518;28;20029;-71
2022/07/10 12:20:42;;;;;;;12.82;2.75;;;19.10;99.90;;;;;;5055713;28;20036;-71
2022/07/10 12:23:09;;;;;;;17.52;2.80;;;19.00;99.90;;;;;;5055477;28;20469;-71
2022/07/10 12:25:35;;;;;;;12.98;2.22;;;19.20;99.90;;;;;;5056328;28;20029;-70
2022/07/10 12:28:01;;;;;;;18.45;2.65;;;19.30;99.90;;;;;;5055419;28;20524;-70
2022/07/10 12:30:38;;;;;;;10.73;1.88;;;19.50;99.90;;;;;;5056045;28;20041;-71
2022/07/10 12:33:17;;;;;;;22.45;3.70;;;19.40;99.90;;;;;;5055487;28;20067;-71
2022/07/10 12:35:59;;;;;;;11.07;1.98;;;19.20;99.90;;;;;;5055506;28;20061;-68
2022/07/10 12:38:28;;;;;;;14.05;2.90;;;18.90;99.90;;;;;;5055206;28;20104;-69
2022/07/10 12:41:11;;;;;;;12.88;2.72;;;18.70;99.90;;;;;;5055244;28;20032;-69
2022/07/10 12:43:37;;;;;;;13.15;2.50;;;18.80;99.90;;;;;;5055445;28;20476;-69
2022/07/10 12:46:15;;;;;;;16.67;2.60;;;19.20;99.90;;;;;;5055352;28;20040;-69
2022/07/10 12:48:41;;;;;;;18.38;3.35;;;19.30;99.90;;;;;;5055305;28;20055;-69
2022/07/10 12:51:24;;;;;;;23.85;2.70;;;18.90;99.90;;;;;;5054988;28;20434;-69
2022/07/10 12:53:50;;;;;;;12.52;3.03;;;18.90;99.90;;;;;;5055057;28;20516;-69